createdAt,value
2019-05-11T01:45:48.195Z,43.88
2019-05-11T01:48:16.112Z,44.07
2019-05-11T01:50:44.035Z,43.04
2019-05-11T01:53:11.823Z,43.37
2019-05-11T01:55:40.923Z,43.65
2019-05-11T01:58:09.482Z,43.86
2019-05-11T02:00:37.525Z,44.97
2019-05-11T02:03:05.374Z,43.41
2019-05-11T02:05:33.660Z,43.90
2019-05-11T02:08:01.974Z,43.87
2019-05-11T02:10:30.097Z,43.83
2019-05-11T02:12:58.131Z,43.80
2019-05-11T02:15:26.131Z,43.43
2019-05-11T02:17:54.228Z,44.52
2019-05-11T02:20:22.067Z,44.50
2019-05-11T02:22:49.833Z,43.50
2019-05-11T02:25:17.628Z,43.34
2019-05-11T02:27:46.203Z,43.22
2019-05-11T02:30:14.273Z,43.38
2019-05-11T02:32:42.193Z,43.49
2019-05-11T02:35:12.146Z,43.64
2019-05-11T02:37:40.075Z,43.96
2019-05-11T02:40:08.080Z,43.77
2019-05-11T02:42:36.075Z,44.30
2019-05-11T02:45:04.085Z,43.76
2019-05-11T02:47:32.027Z,43.71
2019-05-11T02:49:59.951Z,44.53
2019-05-11T02:52:28.375Z,43.83
2019-05-11T02:54:56.358Z,43.86
2019-05-11T02:57:24.305Z,44.61
2019-05-11T02:59:52.205Z,44.25
2019-05-11T03:02:20.163Z,44.69
2019-05-11T03:04:48.126Z,44.05
2019-05-11T03:07:16.078Z,43.90
2019-05-11T03:09:44.233Z,45.48
2019-05-11T03:12:12.340Z,45.21
2019-05-11T03:14:40.476Z,44.91
2019-05-11T03:17:12.886Z,44.96
2019-05-11T03:19:40.792Z,44.27
2019-05-11T03:22:08.609Z,44.23
2019-05-11T03:24:36.475Z,44.81
2019-05-11T03:27:04.341Z,44.24
2019-05-11T03:29:32.535Z,45.27
2019-05-11T03:32:00.372Z,44.85
2019-05-11T03:34:28.388Z,44.70
2019-05-11T03:36:56.479Z,44.78
2019-05-11T03:39:24.334Z,44.49
2019-05-11T03:41:52.265Z,44.65
2019-05-11T03:44:20.118Z,44.69
2019-05-11T03:46:47.921Z,44.46
2019-05-11T03:49:15.985Z,44.33
2019-05-11T03:51:43.772Z,44.33
2019-05-11T03:54:11.579Z,44.44
2019-05-11T03:56:39.439Z,44.48
2019-05-11T03:59:07.624Z,44.45
2019-05-11T04:01:35.415Z,45.26
2019-05-11T04:04:03.207Z,44.68
2019-05-11T04:06:31.001Z,44.86
2019-05-11T04:08:58.849Z,46.03
2019-05-11T04:11:26.620Z,45.15
2019-05-11T04:13:54.419Z,45.05
2019-05-11T04:16:22.469Z,45.39
2019-05-11T04:18:50.370Z,46.20
2019-05-11T04:21:18.236Z,45.92
2019-05-11T04:23:46.213Z,46.22
2019-05-11T04:26:14.110Z,45.66
2019-05-11T04:28:41.921Z,46.26
2019-05-11T04:31:09.769Z,45.81
2019-05-11T04:33:37.627Z,45.69
2019-05-11T04:36:06.382Z,47.72
2019-05-11T04:38:34.264Z,45.19
2019-05-11T04:41:02.134Z,45.82
2019-05-11T04:43:30.032Z,45.00
2019-05-11T04:45:57.857Z,45.17
2019-05-11T04:48:25.778Z,44.92
2019-05-11T04:50:53.563Z,46.28
2019-05-11T04:53:21.619Z,45.52
2019-05-11T04:55:49.487Z,46.93
2019-05-11T04:58:17.285Z,45.87
2019-05-11T05:00:45.219Z,46.68
2019-05-11T05:03:13.027Z,45.66
2019-05-11T05:05:40.962Z,46.31
2019-05-11T05:08:10.046Z,46.72
2019-05-11T05:10:38.147Z,48.85
2019-05-11T05:13:10.664Z,47.68
2019-05-11T05:15:35.572Z,48.35
2019-05-11T05:18:03.401Z,48.45
2019-05-11T05:20:31.246Z,47.41
2019-05-11T05:22:59.135Z,48.17
2019-05-11T05:25:27.106Z,48.71
2019-05-11T05:27:55.134Z,47.61
2019-05-11T05:30:22.989Z,47.19
2019-05-11T05:32:50.823Z,48.04
2019-05-11T05:35:18.685Z,49.69
2019-05-11T05:37:46.584Z,46.43
2019-05-11T05:40:14.503Z,48.78
2019-05-11T05:42:43.797Z,47.23
2019-05-11T05:45:11.865Z,46.64
2019-05-11T05:47:39.688Z,47.28
2019-05-11T05:50:07.970Z,47.58
2019-05-11T05:52:35.746Z,46.44
2019-05-11T05:55:03.798Z,46.31
2019-05-11T05:57:32.075Z,47.15
2019-05-11T05:59:59.956Z,46.72
2019-05-11T06:02:27.724Z,48.09
2019-05-11T06:04:56.592Z,47.45
2019-05-11T06:07:25.909Z,48.41
2019-05-11T06:09:53.754Z,47.12
2019-05-11T06:12:21.624Z,46.52
2019-05-11T06:14:49.580Z,44.98
2019-05-11T06:17:17.398Z,46.44
2019-05-11T06:19:45.285Z,46.38
2019-05-11T06:22:13.223Z,46.08
2019-05-11T06:24:41.133Z,48.26
2019-05-11T06:27:08.930Z,46.51
2019-05-11T06:29:36.917Z,47.02
2019-05-11T06:32:04.745Z,46.80
2019-05-11T06:34:32.530Z,46.66
2019-05-11T06:37:00.366Z,48.38
2019-05-11T06:39:28.279Z,47.09
2019-05-11T06:41:56.112Z,47.07
2019-05-11T06:44:23.960Z,47.71
2019-05-11T06:46:52.946Z,46.72
2019-05-11T06:49:20.825Z,46.83
2019-05-11T06:51:48.941Z,47.42
2019-05-11T06:54:16.835Z,47.04
2019-05-11T06:56:44.637Z,46.76
2019-05-11T06:59:12.488Z,46.86
2019-05-11T07:01:40.318Z,47.25
2019-05-11T07:04:08.124Z,47.05
2019-05-11T07:06:35.968Z,46.99
2019-05-11T07:09:05.488Z,47.13
2019-05-11T07:11:33.305Z,45.01
2019-05-11T07:14:18.747Z,45.27
2019-05-11T07:16:30.709Z,48.38
2019-05-11T07:18:58.659Z,44.96
2019-05-11T07:21:26.464Z,44.58
2019-05-11T07:23:54.265Z,46.63
2019-05-11T07:26:22.879Z,45.42
2019-05-11T07:28:50.695Z,43.98
2019-05-11T07:31:18.555Z,45.39
2019-05-11T07:33:48.630Z,46.72
2019-05-11T07:36:17.735Z,46.31
2019-05-11T07:38:45.849Z,47.17
2019-05-11T07:41:20.651Z,44.67
2019-05-11T07:43:48.590Z,46.37
2019-05-11T07:46:18.251Z,44.80
2019-05-11T07:48:47.934Z,45.69
2019-05-11T07:51:17.987Z,44.21
2019-05-11T07:53:45.785Z,44.28
2019-05-11T07:56:47.986Z,46.85
2019-05-11T07:59:18.233Z,43.14
2019-05-11T08:01:47.753Z,45.41
2019-05-11T08:04:15.099Z,44.60
2019-05-11T08:06:49.957Z,44.22
2019-05-11T08:09:18.675Z,43.81
2019-05-11T08:14:22.237Z,44.54
2019-05-11T08:16:49.987Z,43.85
2019-05-11T08:19:18.555Z,43.89
2019-05-11T08:21:48.182Z,44.37
2019-05-11T08:24:17.983Z,45.47
2019-05-11T08:26:47.849Z,43.41
2019-05-11T08:29:20.139Z,45.09
2019-05-11T08:31:51.644Z,44.74
2019-05-11T08:34:23.403Z,42.71
2019-05-11T08:36:51.283Z,41.84
2019-05-11T08:39:19.082Z,43.44
2019-05-11T08:41:48.759Z,43.58
2019-05-11T08:44:18.485Z,44.33
2019-05-11T08:46:48.052Z,43.55
2019-05-11T08:49:18.810Z,44.38
2019-05-11T08:51:48.673Z,41.56
2019-05-11T08:54:18.289Z,42.84
2019-05-11T08:57:00.880Z,43.47
2019-05-11T09:02:30.607Z,44.14
2019-05-11T09:04:59.063Z,43.13
2019-05-11T09:07:27.936Z,43.32
2019-05-11T09:09:55.879Z,42.14
2019-05-11T09:12:23.826Z,42.93
2019-05-11T09:14:51.628Z,42.19
2019-05-11T09:17:19.506Z,43.59
2019-05-11T09:19:48.154Z,44.70
2019-05-11T09:22:18.180Z,44.06
2019-05-11T09:24:47.771Z,41.74
2019-05-11T09:27:15.426Z,42.13
2019-05-11T09:29:43.292Z,43.41
2019-05-11T09:32:11.421Z,43.57
2019-05-11T09:34:39.451Z,41.78
2019-05-11T09:37:18.412Z,43.75
2019-05-11T09:39:49.875Z,44.54
2019-05-11T09:42:18.990Z,44.33
2019-05-11T09:44:54.352Z,43.68
2019-05-11T09:47:22.194Z,44.01
2019-05-11T09:49:51.070Z,44.02
2019-05-11T09:52:19.303Z,43.90
2019-05-11T09:54:51.161Z,42.38
2019-05-11T09:57:19.037Z,42.74
2019-05-11T09:59:47.879Z,42.97
2019-05-11T10:02:18.622Z,44.52
2019-05-11T10:04:45.486Z,43.98
2019-05-11T10:07:13.645Z,41.41
2019-05-11T10:09:41.426Z,43.61
2019-05-11T10:12:09.304Z,42.72
2019-05-11T10:14:38.190Z,41.50
2019-05-11T10:17:07.927Z,42.57
2019-05-11T10:19:36.260Z,41.80
2019-05-11T10:22:04.137Z,44.02
2019-05-11T10:24:32.042Z,40.17
2019-05-11T10:26:59.952Z,42.38
2019-05-11T10:29:28.906Z,41.61
2019-05-11T10:31:58.693Z,42.17
2019-05-11T10:34:28.491Z,40.62
2019-05-11T10:36:57.979Z,40.71
2019-05-11T10:39:27.948Z,41.08
2019-05-11T10:41:58.349Z,42.09
2019-05-11T10:44:27.919Z,42.93
2019-05-11T10:46:55.207Z,40.94
2019-05-11T10:49:24.055Z,42.13
2019-05-11T10:51:51.893Z,39.24
2019-05-11T10:54:19.747Z,43.36
2019-05-11T10:57:03.461Z,42.26
2019-05-11T10:59:31.655Z,41.47
2019-05-11T11:02:00.168Z,41.06
2019-05-11T11:04:28.838Z,43.74
2019-05-11T11:06:59.138Z,43.30
2019-05-11T11:09:28.181Z,43.00
2019-05-11T11:11:57.919Z,42.62
2019-05-11T11:14:28.454Z,41.96
2019-05-11T11:16:58.152Z,40.37
2019-05-11T11:19:25.321Z,39.43
2019-05-11T11:21:53.299Z,43.03
2019-05-11T11:24:22.343Z,43.01
2019-05-11T11:26:50.321Z,39.81
2019-05-11T11:29:18.445Z,41.23
2019-05-11T11:31:48.202Z,40.69
2019-05-11T11:34:18.846Z,42.58
2019-05-11T11:36:48.152Z,40.72
2019-05-11T11:39:18.557Z,42.48
2019-05-11T11:41:48.380Z,42.48
2019-05-11T11:44:18.307Z,43.40
2019-05-11T11:46:52.131Z,43.14
2019-05-11T11:49:15.051Z,38.61
2019-05-11T11:51:43.104Z,43.04
2019-05-11T11:54:11.985Z,39.46
2019-05-11T11:56:40.068Z,39.21
2019-05-11T11:59:08.679Z,42.44
2019-05-11T12:01:38.496Z,38.77
2019-05-11T12:04:08.237Z,41.52
2019-05-11T12:06:38.362Z,41.80
2019-05-11T12:09:08.778Z,41.95
2019-05-11T12:11:38.011Z,42.76
2019-05-11T12:14:08.493Z,42.68
2019-05-11T12:16:38.778Z,39.54
2019-05-11T12:19:08.371Z,40.12
2019-05-11T12:21:37.930Z,38.53
2019-05-11T12:24:08.210Z,38.36
2019-05-11T12:26:35.688Z,40.79
2019-05-11T12:29:03.563Z,40.65
2019-05-11T12:31:32.683Z,39.56
2019-05-11T12:34:00.814Z,39.78
2019-05-11T12:36:28.893Z,42.12
2019-05-11T12:38:58.122Z,40.24
2019-05-11T12:41:30.460Z,40.20
2019-05-11T12:43:59.559Z,40.74
2019-05-11T12:46:27.790Z,39.06
2019-05-11T12:48:59.205Z,38.88
2019-05-11T12:51:39.707Z,38.89
2019-05-11T12:53:58.146Z,41.17
2019-05-11T12:56:27.758Z,38.36
2019-05-11T12:58:58.071Z,39.69
2019-05-11T13:01:28.900Z,37.01
2019-05-11T13:03:58.036Z,38.22
2019-05-11T13:06:27.350Z,39.46
2019-05-11T13:08:55.241Z,39.85
2019-05-11T13:11:23.065Z,37.11
2019-05-11T13:13:50.955Z,41.44
2019-05-11T13:16:19.392Z,38.84
2019-05-11T13:18:48.841Z,39.62
2019-05-11T13:21:20.669Z,40.26
2019-05-11T13:23:49.028Z,37.69
2019-05-11T13:26:18.086Z,38.62
2019-05-11T13:28:48.161Z,38.53
2019-05-11T13:31:15.671Z,38.76
2019-05-11T13:33:43.692Z,38.17
2019-05-11T13:36:11.710Z,38.65
2019-05-11T13:38:40.314Z,39.63
2019-05-11T13:41:08.209Z,38.82
2019-05-11T13:43:38.989Z,38.29
2019-05-11T13:46:08.731Z,37.83
2019-05-11T13:48:38.594Z,39.23
2019-05-11T13:51:08.580Z,38.43
2019-05-11T13:53:37.635Z,35.82
2019-05-11T13:56:07.788Z,40.02
2019-05-11T13:58:35.255Z,38.04
2019-05-11T14:06:28.733Z,39.33
2019-05-11T14:08:58.223Z,37.30
2019-05-11T14:11:28.495Z,37.36
2019-05-11T14:13:55.401Z,37.93
2019-05-11T14:16:23.309Z,37.31
2019-05-11T14:18:51.531Z,36.61
2019-05-11T14:21:19.406Z,38.88
2019-05-11T14:23:48.497Z,37.44
2019-05-11T14:26:18.446Z,38.94
2019-05-11T14:28:47.950Z,36.83
2019-05-11T14:31:16.002Z,39.13
2019-05-11T14:33:43.873Z,37.06
2019-05-11T14:36:11.742Z,37.09
2019-05-11T14:38:39.496Z,36.54
2019-05-11T14:41:07.854Z,34.25
2019-05-11T14:43:38.169Z,39.02
2019-05-11T14:46:05.739Z,37.60
2019-05-11T14:48:33.954Z,36.36
2019-05-11T14:51:01.986Z,37.53
2019-05-11T14:53:33.437Z,36.17
2019-05-11T14:56:02.700Z,36.00
2019-05-11T15:01:05.934Z,36.45
2019-05-11T15:03:33.925Z,37.24
2019-05-11T15:06:01.917Z,38.40
2019-05-11T15:08:29.681Z,37.71
2019-05-11T15:10:57.781Z,38.82
2019-05-11T15:13:25.688Z,37.84
2019-05-11T15:15:53.685Z,36.78
2019-05-11T15:18:34.181Z,37.48
2019-05-11T15:20:51.237Z,38.51
2019-05-11T15:23:19.361Z,37.02
2019-05-11T15:25:48.784Z,37.45
2019-05-11T15:28:18.099Z,36.76
2019-05-11T15:30:48.353Z,38.03
2019-05-11T15:33:18.132Z,36.03
2019-05-11T15:35:47.728Z,37.84
2019-05-11T15:38:17.706Z,37.64
2019-05-11T15:40:45.429Z,38.92
2019-05-11T15:43:13.445Z,37.79
2019-05-11T15:45:41.288Z,36.45
2019-05-11T15:48:09.448Z,37.62
2019-05-11T15:50:40.300Z,37.38
2019-05-11T15:53:08.829Z,38.74
2019-05-11T15:55:41.807Z,38.65
2019-05-11T15:58:08.430Z,37.18
2019-05-11T16:00:39.755Z,38.38
2019-05-11T16:03:08.030Z,38.06
2019-05-11T16:05:35.933Z,35.53
2019-05-11T16:08:08.402Z,35.07
2019-05-11T16:10:57.645Z,37.47
2019-05-11T16:14:21.030Z,38.79
2019-05-11T16:16:42.544Z,39.10
2019-05-11T16:19:24.383Z,35.96
2019-05-11T16:21:52.752Z,35.70
2019-05-11T16:24:20.654Z,34.58
2019-05-11T16:26:49.705Z,35.66
2019-05-11T16:29:19.021Z,34.89
2019-05-11T16:31:48.280Z,34.78
2019-05-11T16:34:18.300Z,35.75
2019-05-11T16:36:48.019Z,35.68
2019-05-11T16:39:21.028Z,37.10
2019-05-11T16:41:53.360Z,33.29
2019-05-11T16:44:22.858Z,35.67
2019-05-11T16:46:51.952Z,35.68
2019-05-11T16:49:28.551Z,36.02
2019-05-11T16:51:49.877Z,35.39
2019-05-11T16:54:17.678Z,34.83
2019-05-11T16:56:45.505Z,35.14
2019-05-11T16:59:13.312Z,32.85
2019-05-11T17:01:41.248Z,35.53
2019-05-11T17:04:09.282Z,34.99
2019-05-11T17:06:38.528Z,32.33
2019-05-11T17:09:08.815Z,34.58
2019-05-11T17:11:38.396Z,35.18
2019-05-11T17:14:08.270Z,33.98
2019-05-11T17:16:38.672Z,33.93
2019-05-11T17:19:07.873Z,34.51
2019-05-11T17:21:38.043Z,34.83
2019-05-11T17:24:06.209Z,33.33
2019-05-11T17:26:34.072Z,34.19
2019-05-11T17:29:02.065Z,35.13
2019-05-11T17:31:29.884Z,34.91
2019-05-11T17:33:58.175Z,35.05
2019-05-11T17:36:27.945Z,35.05
2019-05-11T17:38:58.155Z,35.68
2019-05-11T17:41:27.803Z,34.69
2019-05-11T17:43:55.297Z,35.17
2019-05-11T17:46:23.834Z,34.82
2019-05-11T17:48:52.886Z,35.59
2019-05-11T17:51:24.289Z,35.68
2019-05-11T17:53:50.366Z,34.69
2019-05-11T17:56:19.505Z,35.10
2019-05-11T17:58:48.329Z,35.66
2019-05-11T18:01:18.582Z,35.76
2019-05-11T18:03:45.999Z,35.36
2019-05-11T18:06:15.099Z,36.70
2019-05-11T18:08:48.848Z,36.94
2019-05-11T18:11:20.701Z,35.98
2019-05-11T18:14:02.808Z,36.49
2019-05-11T18:16:32.876Z,36.75
2019-05-11T18:19:01.143Z,36.65
2019-05-11T18:21:29.615Z,37.25
2019-05-11T18:23:57.570Z,36.81
2019-05-11T18:26:25.380Z,37.11
2019-05-11T18:28:53.454Z,37.27
2019-05-11T18:31:21.287Z,36.73
2019-05-11T18:33:49.187Z,37.40
2019-05-11T18:36:18.357Z,37.07
2019-05-11T18:38:48.563Z,37.25
2019-05-11T18:41:16.018Z,37.44
2019-05-11T18:43:43.825Z,37.47
2019-05-11T18:46:11.707Z,37.25
2019-05-11T18:48:39.691Z,36.32
2019-05-11T18:51:08.695Z,37.04
2019-05-11T18:53:36.694Z,35.07
2019-05-11T18:56:04.702Z,36.05
2019-05-11T18:58:32.502Z,34.56
2019-05-11T19:01:04.377Z,34.71
2019-05-11T19:06:42.371Z,35.02
2019-05-11T19:09:10.187Z,35.35
2019-05-11T19:11:42.549Z,36.01
2019-05-11T19:14:10.448Z,36.29
2019-05-11T19:16:38.959Z,36.23
2019-05-11T19:19:08.089Z,35.72
2019-05-11T19:21:36.208Z,36.45
2019-05-11T19:24:06.023Z,36.17
2019-05-11T19:26:33.527Z,36.50
2019-05-11T19:29:01.459Z,35.94
2019-05-11T19:31:29.326Z,36.66
2019-05-11T19:33:58.141Z,37.22
2019-05-11T19:36:27.728Z,37.96
2019-05-11T19:41:42.563Z,37.66
2019-05-11T19:44:10.282Z,37.13
2019-05-11T19:46:38.789Z,38.34
2019-05-11T19:49:08.639Z,38.43
2019-05-11T19:51:39.824Z,37.50
2019-05-11T19:54:08.269Z,37.68
2019-05-11T19:56:35.205Z,38.06
2019-05-11T19:59:03.313Z,38.27
2019-05-11T20:01:31.091Z,38.02
2019-05-11T20:03:58.844Z,37.92
2019-05-11T20:09:15.572Z,37.69
2019-05-11T20:11:43.408Z,39.46
2019-05-11T20:14:11.132Z,39.13
2019-05-11T20:16:38.914Z,38.41
2019-05-11T20:19:08.630Z,39.17
2019-05-11T20:21:38.032Z,39.90
2019-05-11T20:24:05.582Z,39.12
2019-05-11T20:26:34.586Z,40.17
2019-05-11T20:29:02.381Z,40.71
2019-05-11T20:31:30.490Z,39.24
2019-05-11T20:33:59.012Z,39.54
2019-05-11T20:36:31.014Z,40.34
2019-05-11T20:38:56.272Z,40.82
2019-05-11T20:41:27.802Z,40.88
2019-05-11T20:43:54.987Z,40.08
2019-05-11T20:46:22.719Z,40.22
2019-05-11T20:48:50.490Z,40.27
2019-05-11T20:51:32.517Z,40.42
2019-05-11T20:53:48.971Z,40.32
2019-05-11T20:56:17.802Z,42.15
2019-05-11T20:58:59.460Z,41.54
2019-05-11T21:01:29.368Z,40.66
2019-05-11T21:03:58.516Z,40.95
2019-05-11T21:06:29.005Z,42.51
2019-05-11T21:08:57.351Z,42.19
2019-05-11T21:11:25.259Z,40.86
2019-05-11T21:13:52.963Z,42.04
2019-05-11T21:16:20.704Z,41.97
2019-05-11T21:18:48.443Z,42.28
2019-05-11T21:21:16.254Z,42.21
2019-05-11T21:23:43.988Z,41.78
2019-05-11T21:26:11.727Z,42.62
2019-05-11T21:28:39.454Z,41.56
2019-05-11T21:31:08.065Z,41.87
2019-05-11T21:33:37.887Z,41.42
2019-05-11T21:36:05.910Z,42.25
2019-05-11T21:38:33.631Z,43.22
2019-05-11T21:41:01.455Z,43.10
2019-05-11T21:43:29.210Z,43.21
2019-05-11T21:45:58.175Z,41.71
2019-05-11T21:48:32.905Z,40.62
2019-05-11T21:50:59.893Z,41.28
2019-05-11T21:53:28.786Z,40.37
2019-05-11T21:55:58.511Z,40.23
2019-05-11T21:58:28.427Z,41.33
2019-05-11T22:00:55.910Z,39.20
2019-05-11T22:03:23.667Z,40.13
2019-05-11T22:05:51.553Z,40.41
2019-05-11T22:08:19.335Z,40.75
2019-05-11T22:10:47.107Z,41.01
2019-05-11T22:13:14.860Z,41.65
2019-05-11T22:15:42.592Z,41.33
2019-05-11T22:18:10.926Z,43.73
2019-05-11T22:20:41.015Z,42.70
2019-05-11T22:23:23.479Z,40.67
2019-05-11T22:25:47.559Z,40.83
2019-05-11T22:28:11.963Z,42.11
2019-05-11T22:30:39.739Z,39.31
2019-05-11T22:33:08.780Z,41.61
2019-05-11T22:35:37.681Z,42.17
2019-05-11T22:38:05.502Z,44.19
2019-05-11T22:40:33.247Z,41.48
2019-05-11T22:43:01.371Z,44.93
2019-05-11T22:45:29.098Z,44.09
2019-05-11T22:47:58.540Z,44.02
2019-05-11T22:50:28.861Z,44.30
2019-05-11T22:52:55.972Z,43.88
2019-05-11T22:55:23.724Z,43.11
2019-05-11T22:57:51.464Z,44.73
2019-05-11T23:00:46.476Z,42.46
2019-05-11T23:03:14.289Z,43.63
2019-05-11T23:05:42.338Z,42.57
2019-05-11T23:08:10.104Z,46.06
2019-05-11T23:14:09.982Z,45.33
2019-05-11T23:17:01.221Z,45.21
2019-05-11T23:19:23.881Z,46.40
2019-05-11T23:21:53.507Z,44.31
2019-05-11T23:28:18.461Z,43.70
2019-05-11T23:30:48.558Z,46.36
2019-05-11T23:33:18.274Z,46.14
2019-05-11T23:35:45.583Z,45.39
2019-05-11T23:38:13.348Z,43.84
2019-05-11T23:40:41.147Z,45.27
2019-05-11T23:43:09.065Z,44.52
2019-05-11T23:45:38.228Z,44.07
2019-05-11T23:48:06.339Z,45.08
2019-05-11T23:50:34.157Z,44.77
2019-05-11T23:53:06.395Z,43.49
2019-05-11T23:55:49.668Z,46.96
2019-05-11T23:58:19.370Z,45.02
